createdAt,value
2018-03-07T00:01:46.548Z,0.70
2018-03-07T00:04:15.595Z,2.00
2018-03-07T00:06:43.907Z,1.97
2018-03-07T00:09:12.187Z,0.70
2018-03-07T00:11:40.463Z,1.33
2018-03-07T00:14:08.846Z,3.30
2018-03-07T00:16:37.182Z,0.90
2018-03-07T00:19:05.454Z,0.70
2018-03-07T00:21:33.795Z,0.70
2018-03-07T00:24:02.092Z,0.63
2018-03-07T00:26:30.370Z,0.70
2018-03-07T00:28:58.688Z,0.60
2018-03-07T00:31:27.323Z,0.70
2018-03-07T00:33:56.356Z,1.47
2018-03-07T00:36:24.648Z,1.90
2018-03-07T00:38:52.971Z,1.07
2018-03-07T00:41:22.025Z,0.77
2018-03-07T00:43:50.290Z,0.80
2018-03-07T00:46:18.592Z,3.13
2018-03-07T00:48:46.890Z,0.80
2018-03-07T00:51:15.942Z,0.97
2018-03-07T00:53:44.246Z,1.27
2018-03-07T00:56:12.548Z,0.77
2018-03-07T00:58:41.691Z,1.63
2018-03-07T01:01:10.022Z,0.80
2018-03-07T01:03:38.350Z,1.10
2018-03-07T01:06:06.628Z,0.80
2018-03-07T01:08:34.920Z,2.08
2018-03-07T01:11:03.220Z,0.60
2018-03-07T01:13:31.503Z,0.77
2018-03-07T01:16:00.654Z,0.70
2018-03-07T01:18:28.956Z,2.70
2018-03-07T01:20:57.263Z,0.70
2018-03-07T01:23:26.342Z,0.90
2018-03-07T01:25:55.043Z,0.60
2018-03-07T01:28:23.339Z,3.43
2018-03-07T01:30:52.402Z,0.73
2018-03-07T01:33:20.705Z,10.17
2018-03-07T01:35:49.752Z,7.40
2018-03-07T01:38:18.062Z,13.40
2018-03-07T01:40:47.128Z,17.37
2018-03-07T01:43:16.981Z,13.95
2018-03-07T01:45:46.111Z,13.97
2018-03-07T01:48:14.454Z,16.70
2018-03-07T01:50:43.486Z,15.27
2018-03-07T01:53:11.760Z,13.70
2018-03-07T01:55:40.086Z,16.47
2018-03-07T01:58:08.385Z,17.40
2018-03-07T02:00:37.492Z,17.17
2018-03-07T02:03:06.550Z,18.90
2018-03-07T02:05:37.874Z,13.27
2018-03-07T02:08:06.166Z,16.20
2018-03-07T02:10:34.426Z,0.67
2018-03-07T02:13:02.754Z,3.80
2018-03-07T02:15:31.014Z,0.60
2018-03-07T02:17:59.301Z,0.70
2018-03-07T02:20:27.564Z,0.73
2018-03-07T02:22:55.863Z,1.03
2018-03-07T02:25:24.144Z,0.63
2018-03-07T02:27:53.234Z,0.70
2018-03-07T02:30:21.528Z,0.70
2018-03-07T02:32:50.565Z,0.77
2018-03-07T02:35:18.902Z,0.87
2018-03-07T02:37:47.941Z,3.27
2018-03-07T02:40:16.230Z,0.60
2018-03-07T02:42:44.501Z,0.90
2018-03-07T02:45:12.787Z,3.73
2018-03-07T02:47:41.041Z,0.70
2018-03-07T02:50:09.338Z,0.70
2018-03-07T02:52:37.846Z,0.60
2018-03-07T02:55:06.526Z,0.60
2018-03-07T02:57:34.823Z,0.67
2018-03-07T03:00:03.971Z,2.07
2018-03-07T03:02:33.016Z,0.60
2018-03-07T03:05:01.343Z,0.60
2018-03-07T03:07:29.643Z,0.87
2018-03-07T03:09:57.906Z,1.47
2018-03-07T03:12:26.235Z,0.70
2018-03-07T03:14:54.500Z,1.50
2018-03-07T03:17:22.783Z,4.00
2018-03-07T03:19:51.135Z,0.70
2018-03-07T03:22:19.379Z,0.70
2018-03-07T03:24:47.663Z,0.70
2018-03-07T03:27:15.934Z,0.70
2018-03-07T03:29:44.218Z,0.70
2018-03-07T03:32:12.494Z,0.60
2018-03-07T03:34:40.841Z,0.70
2018-03-07T03:37:09.090Z,0.70
2018-03-07T03:39:37.361Z,0.77
2018-03-07T03:42:05.662Z,2.20
2018-03-07T03:44:33.943Z,1.07
2018-03-07T03:47:02.222Z,0.60
2018-03-07T03:49:31.258Z,3.87
2018-03-07T03:51:59.842Z,0.80
2018-03-07T03:54:28.110Z,1.00
2018-03-07T03:56:56.385Z,1.17
2018-03-07T03:59:25.442Z,0.80
2018-03-07T04:01:53.717Z,0.70
2018-03-07T04:04:22.028Z,0.70
2018-03-07T04:06:50.371Z,0.70
2018-03-07T04:09:18.658Z,1.20
2018-03-07T04:11:46.988Z,0.63
2018-03-07T04:14:15.806Z,0.60
2018-03-07T04:16:44.066Z,0.70
2018-03-07T04:19:12.374Z,2.20
2018-03-07T04:21:40.664Z,3.90
2018-03-07T04:24:08.930Z,0.67
2018-03-07T04:26:37.254Z,0.70
2018-03-07T04:29:05.534Z,0.80
2018-03-07T04:31:33.972Z,2.63
2018-03-07T04:34:02.225Z,0.90
2018-03-07T04:36:30.533Z,0.80
2018-03-07T04:38:58.806Z,0.70
2018-03-07T04:41:27.057Z,0.70
2018-03-07T04:43:55.371Z,0.80
2018-03-07T04:46:24.404Z,0.70
2018-03-07T04:48:52.740Z,4.03
2018-03-07T04:51:21.001Z,1.10
2018-03-07T04:53:49.339Z,3.67
2018-03-07T04:56:17.685Z,1.37
2018-03-07T04:58:45.988Z,0.70
2018-03-07T05:01:14.330Z,0.73
2018-03-07T05:03:42.671Z,0.80
2018-03-07T05:06:10.962Z,2.30
2018-03-07T05:08:39.250Z,0.77
2018-03-07T05:11:07.547Z,0.70
2018-03-07T05:13:35.827Z,11.40
2018-03-07T05:16:05.161Z,15.53
2018-03-07T05:18:33.417Z,0.80
2018-03-07T05:21:02.463Z,0.90
2018-03-07T05:23:30.742Z,0.90
2018-03-07T05:25:59.044Z,5.07
2018-03-07T05:28:27.446Z,0.63
2018-03-07T05:30:56.482Z,0.70
2018-03-07T05:33:24.850Z,0.70
2018-03-07T05:35:53.882Z,1.13
2018-03-07T05:38:22.861Z,0.70
2018-03-07T05:40:51.125Z,0.77
2018-03-07T05:43:19.410Z,0.70
2018-03-07T05:45:47.688Z,0.70
2018-03-07T05:48:16.634Z,0.85
2018-03-07T05:50:45.744Z,0.73
2018-03-07T05:53:14.802Z,1.00
2018-03-07T05:55:43.381Z,0.70
2018-03-07T05:58:11.635Z,4.60
2018-03-07T06:00:39.895Z,0.80
2018-03-07T06:03:08.231Z,0.70
2018-03-07T06:05:36.515Z,1.00
2018-03-07T06:08:05.914Z,0.70
2018-03-07T06:10:34.173Z,0.97
2018-03-07T06:13:02.465Z,0.70
2018-03-07T06:15:30.758Z,1.07
2018-03-07T06:17:59.023Z,0.73
2018-03-07T06:20:27.393Z,1.47
2018-03-07T06:22:55.613Z,0.70
2018-03-07T06:25:24.998Z,0.63
2018-03-07T06:27:53.261Z,1.80
2018-03-07T06:30:21.543Z,4.50
2018-03-07T06:32:49.896Z,0.73
2018-03-07T06:35:18.151Z,0.67
2018-03-07T06:37:46.470Z,0.73
2018-03-07T06:40:14.724Z,0.90
2018-03-07T06:42:43.023Z,0.73
2018-03-07T06:45:11.285Z,0.80
2018-03-07T06:47:39.602Z,0.70
2018-03-07T06:50:08.688Z,0.60
2018-03-07T06:52:37.101Z,0.93
2018-03-07T06:55:05.389Z,0.60
2018-03-07T06:57:33.664Z,0.60
2018-03-07T07:00:01.970Z,0.60
2018-03-07T07:02:30.238Z,3.57
2018-03-07T07:04:58.875Z,0.67
2018-03-07T07:07:27.919Z,2.20
2018-03-07T07:09:56.187Z,1.07
2018-03-07T07:12:24.561Z,0.70
2018-03-07T07:14:52.836Z,0.60
2018-03-07T07:17:21.144Z,11.80
2018-03-07T07:19:49.419Z,15.30
2018-03-07T07:22:17.738Z,12.87
2018-03-07T07:24:46.027Z,14.60
2018-03-07T07:27:15.117Z,15.80
2018-03-07T07:29:43.421Z,16.27
2018-03-07T07:32:11.698Z,15.20
2018-03-07T07:34:40.002Z,19.80
2018-03-07T07:37:08.284Z,14.10
2018-03-07T07:39:36.657Z,14.40
2018-03-07T07:42:04.937Z,14.77
2018-03-07T07:44:33.236Z,17.00
2018-03-07T07:47:01.501Z,14.63
2018-03-07T07:49:29.814Z,15.57
2018-03-07T07:51:58.152Z,15.87
2018-03-07T07:54:26.422Z,16.33
2018-03-07T07:56:54.743Z,17.27
2018-03-07T07:59:23.021Z,15.57
2018-03-07T08:01:51.329Z,16.07
2018-03-07T08:04:19.643Z,17.23
2018-03-07T08:06:47.952Z,19.73
2018-03-07T08:09:16.280Z,20.27
2018-03-07T08:11:44.640Z,21.30
2018-03-07T08:14:12.950Z,18.80
2018-03-07T08:16:41.247Z,20.53
2018-03-07T08:19:09.594Z,19.43
2018-03-07T08:21:37.948Z,19.97
2018-03-07T08:24:07.054Z,19.00
2018-03-07T08:26:35.338Z,20.80
2018-03-07T08:29:04.205Z,21.80
2018-03-07T08:31:32.484Z,21.33
2018-03-07T08:34:00.782Z,23.20
2018-03-07T08:36:29.858Z,21.47
2018-03-07T08:38:58.928Z,23.23
2018-03-07T08:41:27.232Z,21.20
2018-03-07T08:43:55.503Z,20.90
2018-03-07T08:46:23.840Z,20.80
2018-03-07T08:48:52.165Z,20.53
2018-03-07T08:51:20.601Z,19.37
2018-03-07T08:53:48.918Z,20.00
2018-03-07T08:56:17.215Z,1.03
2018-03-07T08:58:46.325Z,16.90
2018-03-07T09:01:14.616Z,19.90
2018-03-07T09:03:42.924Z,23.10
2018-03-07T09:06:11.189Z,22.30
2018-03-07T09:08:39.514Z,23.00
2018-03-07T09:11:07.823Z,23.23
2018-03-07T09:13:36.106Z,23.87
2018-03-07T09:16:04.420Z,23.97
2018-03-07T09:18:32.724Z,29.90
2018-03-07T09:21:01.807Z,24.77
2018-03-07T09:23:30.178Z,24.50
2018-03-07T09:25:58.543Z,24.27
2018-03-07T09:28:26.867Z,20.93
2018-03-07T09:30:55.194Z,23.23
2018-03-07T09:33:24.332Z,23.50
2018-03-07T09:35:52.853Z,23.67
2018-03-07T09:38:21.262Z,23.47
2018-03-07T09:40:49.712Z,20.93
2018-03-07T09:43:18.159Z,23.13
2018-03-07T09:45:46.504Z,23.17
2018-03-07T09:48:14.988Z,21.93
2018-03-07T09:50:43.460Z,21.07
2018-03-07T09:53:11.739Z,21.50
2018-03-07T09:55:40.057Z,21.60
2018-03-07T09:58:08.417Z,23.37
2018-03-07T10:00:36.920Z,21.37
2018-03-07T10:03:05.427Z,21.20
2018-03-07T10:05:33.862Z,20.07
2018-03-07T10:08:02.366Z,22.30
2018-03-07T10:10:31.254Z,24.53
2018-03-07T10:12:59.596Z,21.47
2018-03-07T10:15:28.003Z,19.80
2018-03-07T10:17:56.411Z,22.87
2018-03-07T10:20:25.519Z,24.40
2018-03-07T10:22:53.996Z,21.47
2018-03-07T10:25:22.290Z,24.13
2018-03-07T10:27:51.561Z,23.67
2018-03-07T10:30:19.958Z,24.17
2018-03-07T10:32:48.318Z,27.70
2018-03-07T10:35:16.649Z,28.70
2018-03-07T10:37:45.757Z,29.27
2018-03-07T10:40:14.269Z,29.37
2018-03-07T10:42:42.571Z,26.70
2018-03-07T10:45:11.629Z,27.87
2018-03-07T10:47:39.909Z,27.43
2018-03-07T10:50:08.331Z,25.80
2018-03-07T10:52:36.893Z,27.67
2018-03-07T10:55:05.253Z,26.90
2018-03-07T10:57:33.589Z,26.43
2018-03-07T11:00:01.890Z,26.57
2018-03-07T11:02:30.223Z,27.13
2018-03-07T11:04:58.544Z,27.13
2018-03-07T11:07:26.847Z,26.70
2018-03-07T11:09:55.382Z,26.10
2018-03-07T11:12:23.850Z,25.93
2018-03-07T11:14:52.290Z,28.80
2018-03-07T11:17:20.664Z,25.97
2018-03-07T11:19:48.962Z,27.50
2018-03-07T11:22:17.339Z,27.90
2018-03-07T11:24:45.755Z,21.70
2018-03-07T11:27:14.089Z,26.93
2018-03-07T11:29:42.405Z,29.97
2018-03-07T11:32:11.528Z,33.70
2018-03-07T11:34:39.807Z,31.70
2018-03-07T11:37:08.260Z,30.97
2018-03-07T11:39:36.590Z,29.83
2018-03-07T11:42:05.000Z,29.00
2018-03-07T11:44:33.492Z,27.33
2018-03-07T11:47:01.927Z,28.60
2018-03-07T11:49:30.286Z,26.27
2018-03-07T11:51:58.623Z,29.83
2018-03-07T11:54:27.021Z,30.37
2018-03-07T11:56:55.335Z,28.73
2018-03-07T11:59:23.672Z,28.70
2018-03-07T12:01:52.802Z,29.17
2018-03-07T12:04:21.167Z,30.17
2018-03-07T12:06:49.975Z,28.17
2018-03-07T12:09:18.293Z,28.10
2018-03-07T12:11:46.684Z,33.27
2018-03-07T12:14:15.069Z,30.87
2018-03-07T12:16:43.377Z,28.67
2018-03-07T12:19:11.702Z,27.43
2018-03-07T12:21:40.077Z,31.47
2018-03-07T12:24:08.402Z,31.43
2018-03-07T12:26:36.766Z,27.43
2018-03-07T12:29:05.036Z,30.37
2018-03-07T12:31:33.335Z,30.60
2018-03-07T12:34:02.383Z,25.47
2018-03-07T12:36:30.699Z,28.50
2018-03-07T12:38:59.165Z,28.10
2018-03-07T12:41:27.687Z,25.10
2018-03-07T12:43:55.966Z,29.40
2018-03-07T12:46:24.280Z,30.27
2018-03-07T12:48:52.557Z,30.40
2018-03-07T12:51:20.958Z,28.43
2018-03-07T12:53:49.265Z,28.80
2018-03-07T12:56:18.315Z,31.20
2018-03-07T12:58:46.619Z,33.17
2018-03-07T13:01:14.917Z,29.57
2018-03-07T13:03:43.206Z,29.87
2018-03-07T13:06:11.502Z,30.03
2018-03-07T13:08:39.824Z,32.57
2018-03-07T13:11:08.133Z,31.10
2018-03-07T13:13:37.185Z,33.73
2018-03-07T13:16:05.515Z,31.13
2018-03-07T13:18:33.817Z,32.30
2018-03-07T13:21:09.400Z,34.27
2018-03-07T13:23:37.717Z,34.00
2018-03-07T13:26:07.093Z,33.17
2018-03-07T13:28:35.912Z,33.17
2018-03-07T13:31:04.234Z,32.03
2018-03-07T13:33:32.623Z,34.40
2018-03-07T13:36:01.001Z,32.30
2018-03-07T13:38:29.643Z,34.50
2018-03-07T13:40:57.932Z,34.90
2018-03-07T13:43:26.204Z,35.47
2018-03-07T13:45:54.563Z,36.27
2018-03-07T13:48:22.840Z,35.97
2018-03-07T13:50:51.151Z,37.57
2018-03-07T13:53:20.343Z,35.93
2018-03-07T13:55:48.657Z,32.33
2018-03-07T13:58:17.651Z,35.92
2018-03-07T14:00:45.953Z,36.80
2018-03-07T14:03:14.278Z,33.10
2018-03-07T14:05:43.396Z,34.97
2018-03-07T14:08:11.709Z,34.43
2018-03-07T14:10:40.008Z,26.30
2018-03-07T14:13:09.137Z,32.80
2018-03-07T14:15:37.790Z,30.30
2018-03-07T14:18:06.884Z,32.07
2018-03-07T14:20:35.216Z,31.83
2018-03-07T14:23:03.488Z,31.17
2018-03-07T14:25:31.882Z,31.80
2018-03-07T14:28:00.487Z,29.70
2018-03-07T14:30:28.798Z,32.10
2018-03-07T14:33:00.412Z,32.57
2018-03-07T14:35:28.751Z,28.80
2018-03-07T14:37:57.031Z,28.80
2018-03-07T14:40:25.312Z,27.20
2018-03-07T14:42:53.628Z,27.77
2018-03-07T14:45:22.097Z,29.07
2018-03-07T14:47:50.431Z,28.30
2018-03-07T14:50:18.706Z,26.20
2018-03-07T14:52:47.067Z,26.83
2018-03-07T14:55:15.625Z,27.13
2018-03-07T14:57:45.255Z,26.37
2018-03-07T15:00:14.038Z,28.20
2018-03-07T15:02:44.747Z,26.70
2018-03-07T15:05:13.212Z,27.80
2018-03-07T15:07:41.916Z,25.63
2018-03-07T15:10:11.799Z,25.93
2018-03-07T15:12:40.648Z,24.00
2018-03-07T15:15:09.411Z,27.73
2018-03-07T15:17:38.407Z,25.87
2018-03-07T15:20:07.025Z,26.50
2018-03-07T15:22:35.366Z,25.77
2018-03-07T15:25:04.601Z,24.77
2018-03-07T15:27:33.273Z,26.43
2018-03-07T15:30:02.401Z,23.90
2018-03-07T15:32:34.037Z,23.87
2018-03-07T15:35:02.755Z,24.50
2018-03-07T15:37:35.694Z,24.53
2018-03-07T15:40:04.786Z,24.20
2018-03-07T15:42:33.229Z,26.53
2018-03-07T15:45:02.972Z,24.77
2018-03-07T15:47:31.702Z,25.53
2018-03-07T15:50:00.188Z,24.73
2018-03-07T15:52:28.629Z,24.37
2018-03-07T15:54:57.017Z,25.77
2018-03-07T15:57:25.326Z,22.37
2018-03-07T15:59:54.918Z,24.07
2018-03-07T16:02:23.257Z,21.07
2018-03-07T16:04:51.576Z,22.97
2018-03-07T16:07:20.228Z,20.17
2018-03-07T16:09:48.783Z,23.03
2018-03-07T16:12:17.102Z,19.90
2018-03-07T16:14:45.406Z,20.53
2018-03-07T16:17:13.740Z,20.20
2018-03-07T16:19:42.138Z,19.63
2018-03-07T16:22:10.480Z,21.33
2018-03-07T16:24:41.939Z,29.93
2018-03-07T16:27:10.282Z,19.57
2018-03-07T16:29:38.687Z,20.20
2018-03-07T16:32:07.183Z,20.10
2018-03-07T16:34:35.542Z,19.83
2018-03-07T16:37:03.922Z,18.60
2018-03-07T16:39:32.333Z,17.10
2018-03-07T16:42:00.638Z,16.30
2018-03-07T16:44:29.024Z,18.17
2018-03-07T16:46:57.324Z,17.00
2018-03-07T16:49:25.720Z,16.50
2018-03-07T16:51:53.978Z,13.57
2018-03-07T16:54:22.906Z,17.67
2018-03-07T16:56:51.196Z,15.43
2018-03-07T16:59:19.516Z,14.57
2018-03-07T17:01:47.854Z,13.80
2018-03-07T17:04:25.025Z,13.87
2018-03-07T17:06:54.131Z,14.20
2018-03-07T17:09:22.567Z,17.00
2018-03-07T17:11:50.847Z,18.37
2018-03-07T17:14:19.251Z,14.17
2018-03-07T17:16:48.343Z,15.93
2018-03-07T17:19:17.443Z,16.13
2018-03-07T17:21:45.735Z,14.00
2018-03-07T17:24:14.023Z,15.03
2018-03-07T17:26:42.338Z,15.87
2018-03-07T17:29:10.642Z,15.13
2018-03-07T17:31:38.973Z,15.27
2018-03-07T17:34:07.273Z,12.60
2018-03-07T17:36:37.096Z,12.50
2018-03-07T17:39:05.443Z,11.50
2018-03-07T17:41:34.333Z,11.10
2018-03-07T17:44:02.699Z,10.13
2018-03-07T17:46:31.003Z,10.70
2018-03-07T17:48:59.288Z,18.57
2018-03-07T17:51:27.602Z,10.90
2018-03-07T17:54:02.149Z,10.70
2018-03-07T17:56:30.811Z,11.60
2018-03-07T17:58:59.292Z,10.33
2018-03-07T18:01:28.703Z,10.43
2018-03-07T18:03:58.091Z,9.97
2018-03-07T18:06:26.527Z,8.87
2018-03-07T18:08:55.012Z,10.73
2018-03-07T18:11:23.444Z,12.37
2018-03-07T18:13:52.732Z,10.20
2018-03-07T18:16:21.347Z,9.73
2018-03-07T18:18:49.982Z,9.90
2018-03-07T18:21:19.313Z,8.97
2018-03-07T18:23:48.683Z,8.27
2018-03-07T18:26:17.280Z,8.37
2018-03-07T18:28:45.885Z,9.23
2018-03-07T18:31:14.445Z,7.63
2018-03-07T18:33:43.672Z,6.77
2018-03-07T18:36:12.188Z,7.73
2018-03-07T18:38:40.788Z,7.47
2018-03-07T18:41:09.202Z,8.17
2018-03-07T18:43:38.573Z,9.33
2018-03-07T18:46:06.994Z,7.77
2018-03-07T18:48:40.153Z,8.20
2018-03-07T18:51:10.492Z,8.00
2018-03-07T18:53:39.146Z,8.07
2018-03-07T18:56:08.386Z,7.73
2018-03-07T18:58:36.664Z,6.73
2018-03-07T19:01:05.508Z,6.37
2018-03-07T19:03:34.726Z,7.90
2018-03-07T19:06:03.067Z,7.07
2018-03-07T19:08:31.406Z,6.77
2018-03-07T19:10:59.763Z,7.07
2018-03-07T19:13:28.603Z,7.13
2018-03-07T19:15:57.061Z,7.30
2018-03-07T19:18:26.331Z,6.40
2018-03-07T19:20:54.590Z,7.13
2018-03-07T19:23:23.714Z,6.70
2018-03-07T19:25:52.096Z,7.17
2018-03-07T19:28:20.398Z,6.20
2018-03-07T19:30:48.685Z,6.40
2018-03-07T19:36:30.146Z,6.80
2018-03-07T19:38:59.264Z,7.60
2018-03-07T19:41:28.551Z,10.50
2018-03-07T19:43:56.842Z,7.07
2018-03-07T19:46:25.236Z,8.47
2018-03-07T19:48:53.584Z,7.17
2018-03-07T19:51:21.983Z,8.17
2018-03-07T19:53:51.116Z,8.10
2018-03-07T19:56:19.631Z,7.37
2018-03-07T19:58:48.797Z,6.13
2018-03-07T20:01:20.602Z,7.37
2018-03-07T20:03:49.808Z,6.07
2018-03-07T20:06:23.681Z,6.70
2018-03-07T20:08:52.177Z,6.20
2018-03-07T20:11:20.871Z,7.07
2018-03-07T20:13:49.946Z,7.40
2018-03-07T20:16:18.554Z,6.03
2018-03-07T20:18:47.037Z,6.10
2018-03-07T20:21:20.381Z,5.50
2018-03-07T20:23:49.688Z,6.90
2018-03-07T20:26:18.254Z,6.53
2018-03-07T20:28:47.229Z,6.10
2018-03-07T20:31:15.565Z,5.43
2018-03-07T20:33:44.053Z,5.87
2018-03-07T20:36:13.352Z,7.07
2018-03-07T20:38:43.991Z,6.10
2018-03-07T20:41:12.467Z,5.30
2018-03-07T20:43:40.741Z,6.17
2018-03-07T20:46:09.469Z,6.30
2018-03-07T20:48:38.023Z,5.80
2018-03-07T20:51:06.436Z,5.30
2018-03-07T20:53:34.796Z,6.57
2018-03-07T20:56:03.889Z,6.37
2018-03-07T20:58:32.253Z,6.80
2018-03-07T21:01:00.542Z,6.37
2018-03-07T21:03:28.903Z,6.27
2018-03-07T21:05:57.298Z,5.83
2018-03-07T21:08:26.501Z,6.27
2018-03-07T21:10:54.892Z,6.10
2018-03-07T21:13:23.985Z,5.47
2018-03-07T21:15:52.352Z,4.97
2018-03-07T21:18:21.606Z,5.33
2018-03-07T21:20:50.026Z,4.83
2018-03-07T21:23:19.311Z,5.62
2018-03-07T21:25:47.769Z,4.80
2018-03-07T21:28:16.097Z,5.33
2018-03-07T21:30:44.438Z,6.60
2018-03-07T21:33:12.973Z,5.37
2018-03-07T21:35:41.365Z,5.57
2018-03-07T21:38:09.701Z,5.50
2018-03-07T21:40:38.038Z,5.83
2018-03-07T21:43:06.420Z,4.70
2018-03-07T21:45:34.821Z,5.30
2018-03-07T21:48:03.151Z,5.13
2018-03-07T21:50:31.764Z,6.03
2018-03-07T21:53:00.198Z,6.80
2018-03-07T21:55:32.774Z,5.00
2018-03-07T21:58:02.847Z,5.53
2018-03-07T22:00:31.330Z,5.70
2018-03-07T22:03:00.528Z,6.60
2018-03-07T22:05:28.870Z,5.50
2018-03-07T22:07:57.384Z,5.47
2018-03-07T22:10:25.820Z,5.47
2018-03-07T22:13:00.660Z,5.47
2018-03-07T22:15:29.184Z,5.33
2018-03-07T22:17:57.623Z,5.60
2018-03-07T22:20:26.881Z,5.60
2018-03-07T22:22:55.166Z,5.50
2018-03-07T22:25:23.500Z,4.70
2018-03-07T22:27:51.803Z,5.30
2018-03-07T22:30:20.157Z,4.57
2018-03-07T22:32:50.165Z,5.10
2018-03-07T22:35:19.196Z,5.50
2018-03-07T22:37:52.536Z,6.87
2018-03-07T22:40:20.802Z,6.53
2018-03-07T22:42:49.069Z,5.90
2018-03-07T22:45:17.374Z,6.83
2018-03-07T22:47:45.659Z,6.80
2018-03-07T22:50:13.976Z,9.27
2018-03-07T22:52:42.316Z,7.90
2018-03-07T22:55:10.575Z,6.87
2018-03-07T22:57:38.865Z,6.07
2018-03-07T23:13:30.694Z,4.60
2018-03-07T23:15:59.131Z,8.93
2018-03-07T23:18:27.435Z,5.83
2018-03-07T23:20:55.758Z,7.00
2018-03-07T23:23:24.150Z,6.20
2018-03-07T23:25:52.600Z,8.40
2018-03-07T23:28:20.941Z,6.93
2018-03-07T23:30:49.231Z,7.27
2018-03-07T23:33:17.499Z,6.30
2018-03-07T23:35:45.820Z,6.17
2018-03-07T23:38:14.128Z,6.00
2018-03-07T23:40:42.454Z,5.40
2018-03-07T23:43:10.738Z,6.10
2018-03-07T23:45:39.104Z,5.40
2018-03-07T23:48:07.442Z,9.00
2018-03-07T23:50:35.756Z,6.00
2018-03-07T23:53:04.022Z,5.80
2018-03-07T23:55:32.318Z,5.83
2018-03-07T23:58:00.588Z,5.47
